createdAt,value
2019-04-05T00:35:17.760Z,7.60
2019-04-05T00:52:03.434Z,7.60
2019-04-05T00:54:33.454Z,7.70
2019-04-05T00:57:04.810Z,7.70
2019-04-05T00:59:34.216Z,7.70
2019-04-05T01:02:03.906Z,7.80
2019-04-05T01:12:19.608Z,7.60
2019-04-05T01:14:49.054Z,7.60
2019-04-05T01:17:25.142Z,7.60
2019-04-05T01:19:56.274Z,7.60
2019-04-05T01:22:30.687Z,7.60
2019-04-05T01:25:00.947Z,7.60
2019-04-05T01:27:33.335Z,7.50
2019-04-05T01:30:02.939Z,7.60
2019-04-05T01:32:32.716Z,7.50
2019-04-05T01:35:08.024Z,7.50
2019-04-05T01:37:38.270Z,7.40
2019-04-05T01:40:07.819Z,7.50
2019-04-05T01:42:37.718Z,7.40
2019-04-05T01:45:08.243Z,7.40
2019-04-05T01:47:41.818Z,7.40
2019-04-05T01:50:11.494Z,7.40
2019-04-05T01:52:43.398Z,7.30
2019-04-05T01:55:13.776Z,7.30
2019-04-05T01:57:43.087Z,7.30
2019-04-05T02:00:13.810Z,7.40
2019-04-05T02:03:31.923Z,7.40
2019-04-05T02:10:17.278Z,7.30
2019-04-05T02:19:50.419Z,7.20
2019-04-05T02:22:42.140Z,7.30
2019-04-05T02:25:40.601Z,7.30
2019-04-05T02:28:08.574Z,7.20
2019-04-05T02:30:42.634Z,7.20
2019-04-05T02:33:53.232Z,7.20
2019-04-05T02:36:41.842Z,7.10
2019-04-05T02:39:14.512Z,7.20
2019-04-05T02:41:58.037Z,7.10
2019-04-05T02:44:34.855Z,7.10
2019-04-05T02:50:39.499Z,6.90
2019-04-05T02:56:56.937Z,6.80
2019-04-05T02:59:33.898Z,6.90
2019-04-05T03:02:08.470Z,6.90
2019-04-05T03:04:37.931Z,6.80
2019-04-05T03:07:08.358Z,6.80
2019-04-05T03:09:38.232Z,6.90
2019-04-05T03:12:08.719Z,7.00
2019-04-05T03:14:48.241Z,7.00
2019-04-05T03:17:42.117Z,7.00
2019-04-05T03:20:24.120Z,6.90
2019-04-05T03:22:58.955Z,7.00
2019-04-05T03:25:35.333Z,6.90
2019-04-05T03:31:46.666Z,6.90
2019-04-05T03:34:38.625Z,6.90
2019-04-05T03:37:37.719Z,6.80
2019-04-05T03:40:33.559Z,6.80
2019-04-05T03:43:31.729Z,6.70
2019-04-05T03:46:06.498Z,6.60
2019-04-05T03:49:22.017Z,6.50
2019-04-05T03:51:54.312Z,6.60
2019-04-05T03:54:39.506Z,6.60
2019-04-05T03:57:16.272Z,6.50
2019-04-05T03:59:48.785Z,6.50
2019-04-05T04:02:18.082Z,6.40
2019-04-05T04:04:47.647Z,6.40
2019-04-05T04:07:17.234Z,6.40
2019-04-05T04:09:47.741Z,6.30
2019-04-05T04:12:20.086Z,6.30
2019-04-05T04:14:53.498Z,6.30
2019-04-05T04:17:28.260Z,6.20
2019-04-05T04:20:04.260Z,6.10
2019-04-05T04:22:48.509Z,6.20
2019-04-05T04:25:27.941Z,6.30
2019-04-05T04:28:06.149Z,6.20
2019-04-05T04:30:40.307Z,6.30
2019-04-05T04:33:33.084Z,6.30
2019-04-05T04:36:13.056Z,6.40
2019-04-05T04:38:45.698Z,6.50
2019-04-05T04:41:37.914Z,6.40
2019-04-05T04:44:31.263Z,6.40
2019-04-05T04:47:01.232Z,6.50
2019-04-05T04:49:48.396Z,6.50
2019-04-05T04:52:35.197Z,6.50
2019-04-05T04:55:08.797Z,6.60
2019-04-05T04:57:39.453Z,6.60
2019-04-05T05:00:09.147Z,6.70
2019-04-05T05:02:38.607Z,6.70
2019-04-05T05:05:08.134Z,6.80
2019-04-05T05:07:47.499Z,6.80
2019-04-05T05:10:24.931Z,6.80
2019-04-05T05:13:45.200Z,6.80
2019-04-05T05:19:53.809Z,6.90
2019-04-05T05:29:48.727Z,7.10
2019-04-05T05:32:42.146Z,7.20
2019-04-05T05:35:11.720Z,7.20
2019-04-05T05:37:46.111Z,7.30
2019-04-05T05:40:15.735Z,7.30
2019-04-05T05:42:45.070Z,7.40
2019-04-05T05:45:14.271Z,7.50
2019-04-05T05:47:51.652Z,7.50
2019-04-05T05:50:18.639Z,7.60
2019-04-05T05:52:48.455Z,7.70
2019-04-05T05:55:31.835Z,7.80
2019-04-05T05:58:01.230Z,7.90
2019-04-05T06:00:34.816Z,8.00
2019-04-05T06:03:06.404Z,8.00
2019-04-05T06:05:37.214Z,8.10
2019-04-05T06:08:06.599Z,8.10
2019-04-05T06:10:35.735Z,8.20
2019-04-05T06:13:07.266Z,8.20
2019-04-05T06:15:42.319Z,8.30
2019-04-05T06:18:12.833Z,8.40
2019-04-05T06:20:42.323Z,8.50
2019-04-05T06:23:11.727Z,8.50
2019-04-05T06:25:41.075Z,8.50
2019-04-05T06:28:10.380Z,8.60
2019-04-05T06:30:40.719Z,8.70
2019-04-05T06:33:10.016Z,8.70
2019-04-05T06:35:39.188Z,8.80
2019-04-05T06:38:08.527Z,8.90
2019-04-05T06:40:41.023Z,8.90
2019-04-05T06:43:08.732Z,9.00
2019-04-05T06:45:38.214Z,9.10
2019-04-05T06:51:07.105Z,9.20
2019-04-05T06:53:39.471Z,9.30
2019-04-05T06:56:09.224Z,9.30
2019-04-05T06:58:38.526Z,9.40
2019-04-05T07:01:09.313Z,9.50
2019-04-05T07:03:39.809Z,9.60
2019-04-05T07:06:11.887Z,9.70
2019-04-05T07:08:53.130Z,9.80
2019-04-05T07:11:13.747Z,9.80
2019-04-05T07:13:43.062Z,9.90
2019-04-05T07:16:12.525Z,10.00
2019-04-05T07:18:41.900Z,10.10
2019-04-05T07:21:12.574Z,10.20
2019-04-05T07:23:51.930Z,10.30
2019-04-05T07:26:22.326Z,10.40
2019-04-05T07:28:51.984Z,10.50
2019-04-05T07:31:21.696Z,10.50
2019-04-05T07:33:52.702Z,10.70
2019-04-05T07:36:24.611Z,10.70
2019-04-05T07:38:59.400Z,10.80
2019-04-05T07:41:31.911Z,10.90
2019-04-05T07:44:07.915Z,11.00
2019-04-05T07:46:49.330Z,11.10
2019-04-05T07:49:21.729Z,11.20
2019-04-05T07:51:51.467Z,11.30
2019-04-05T07:54:21.015Z,11.40
2019-04-05T07:56:50.788Z,11.50
2019-04-05T07:59:35.793Z,11.70
2019-04-05T08:02:07.123Z,11.80
2019-04-05T08:04:38.280Z,11.90
2019-04-05T08:07:10.795Z,12.00
2019-04-05T08:09:41.493Z,12.10
2019-04-05T08:12:14.379Z,12.30
2019-04-05T08:14:45.102Z,12.50
2019-04-05T08:17:15.259Z,12.70
2019-04-05T08:19:45.138Z,12.80
2019-04-05T08:22:26.930Z,13.10
2019-04-05T08:25:33.923Z,13.30
2019-04-05T08:28:16.765Z,13.60
2019-04-05T08:30:46.478Z,13.80
2019-04-05T08:33:23.095Z,14.00
2019-04-05T08:35:58.658Z,14.00
2019-04-05T08:38:48.358Z,13.70
2019-04-05T08:41:26.503Z,13.90
2019-04-05T08:43:56.317Z,13.80
2019-04-05T08:46:35.599Z,14.00
2019-04-05T08:49:10.825Z,14.10
2019-04-05T08:51:36.825Z,14.30
2019-04-05T08:54:06.319Z,14.50
2019-04-05T08:56:35.993Z,14.70
2019-04-05T08:59:05.916Z,14.70
2019-04-05T09:01:37.327Z,14.80
2019-04-05T09:04:06.875Z,15.10
2019-04-05T09:06:36.274Z,15.10
2019-04-05T09:09:07.428Z,15.10
2019-04-05T09:11:36.839Z,15.10
2019-04-05T09:14:06.250Z,15.20
2019-04-05T09:16:36.011Z,15.30
2019-04-05T09:19:05.652Z,15.40
2019-04-05T09:21:35.144Z,15.50
2019-04-05T09:24:04.418Z,15.60
2019-04-05T09:26:34.449Z,15.60
2019-04-05T09:29:03.607Z,15.80
2019-04-05T09:31:32.886Z,15.80
2019-04-05T09:34:02.546Z,15.90
2019-04-05T09:36:31.862Z,15.90
2019-04-05T09:39:02.081Z,15.80
2019-04-05T09:41:32.821Z,15.60
2019-04-05T09:44:02.240Z,15.90
2019-04-05T09:46:31.494Z,15.70
2019-04-05T09:49:00.872Z,15.80
2019-04-05T09:51:30.369Z,16.00
2019-04-05T09:53:59.655Z,16.20
2019-04-05T09:56:29.000Z,16.30
2019-04-05T09:58:58.352Z,16.70
2019-04-05T10:01:27.699Z,16.90
2019-04-05T10:03:57.343Z,17.40
2019-04-05T10:06:27.393Z,17.60
2019-04-05T10:08:57.204Z,17.70
2019-04-05T10:11:27.103Z,17.80
2019-04-05T10:13:56.906Z,17.80
2019-04-05T10:16:27.019Z,17.90
2019-04-05T10:18:56.738Z,17.70
2019-04-05T10:21:27.775Z,17.70
2019-04-05T10:24:00.147Z,17.80
2019-04-05T10:26:31.679Z,17.50
2019-04-05T10:29:01.466Z,17.30
2019-04-05T10:31:30.913Z,17.40
2019-04-05T10:34:00.337Z,17.30
2019-04-05T10:36:30.341Z,17.50
2019-04-05T10:38:59.945Z,17.50
2019-04-05T10:41:29.675Z,17.50
2019-04-05T10:43:59.342Z,17.50
2019-04-05T10:46:29.026Z,17.60
2019-04-05T10:48:58.709Z,17.60
2019-04-05T10:51:28.321Z,17.60
2019-04-05T10:53:57.945Z,17.60
2019-04-05T10:56:27.484Z,17.70
2019-04-05T10:58:57.198Z,17.80
2019-04-05T11:01:33.345Z,17.80
2019-04-05T11:04:03.755Z,17.90
2019-04-05T11:06:33.714Z,18.00
2019-04-05T11:09:04.397Z,18.00
2019-04-05T11:11:37.519Z,17.80
2019-04-05T11:14:13.756Z,18.00
2019-04-05T11:16:41.103Z,18.00
2019-04-05T11:19:14.530Z,17.90
2019-04-05T11:21:48.498Z,18.00
2019-04-05T11:24:19.091Z,17.80
2019-04-05T11:27:09.717Z,17.60
2019-04-05T11:29:40.785Z,17.50
2019-04-05T11:32:10.323Z,17.40
2019-04-05T11:34:45.179Z,17.30
2019-04-05T11:37:16.889Z,17.20
2019-04-05T11:39:55.632Z,17.20
2019-04-05T11:42:25.443Z,17.20
2019-04-05T11:44:56.915Z,17.30
2019-04-05T11:47:26.810Z,17.30
2019-04-05T11:49:58.073Z,17.60
2019-04-05T11:52:28.588Z,18.10
2019-04-05T11:54:57.779Z,18.40
2019-04-05T11:57:33.320Z,18.60
2019-04-05T12:00:02.970Z,18.70
2019-04-05T12:02:51.477Z,18.60
2019-04-05T12:05:26.842Z,18.50
2019-04-05T12:08:02.040Z,18.70
2019-04-05T12:10:32.109Z,19.00
2019-04-05T12:13:01.622Z,18.90
2019-04-05T12:15:31.245Z,18.80
2019-04-05T12:18:02.454Z,19.10
2019-04-05T12:20:33.324Z,19.10
2019-04-05T12:23:03.590Z,19.20
2019-04-05T12:25:33.758Z,19.10
2019-04-05T12:28:07.518Z,19.60
2019-04-05T12:30:37.541Z,19.30
2019-04-05T12:33:14.441Z,19.10
2019-04-05T12:35:39.453Z,19.30
2019-04-05T12:38:09.135Z,19.50
2019-04-05T12:40:40.614Z,19.70
2019-04-05T12:43:13.222Z,19.90
2019-04-05T12:45:44.301Z,19.80
2019-04-05T12:48:13.700Z,20.10
2019-04-05T12:50:44.898Z,20.10
2019-04-05T12:53:15.051Z,20.00
2019-04-05T12:55:45.000Z,19.80
2019-04-05T12:58:15.672Z,20.00
2019-04-05T13:00:45.294Z,20.10
2019-04-05T13:03:14.563Z,20.40
2019-04-05T13:05:44.478Z,20.20
2019-04-05T13:08:13.787Z,20.20
2019-04-05T13:10:43.512Z,20.50
2019-04-05T13:13:12.892Z,20.30
2019-04-05T13:15:42.495Z,20.20
2019-04-05T13:18:12.269Z,20.30
2019-04-05T13:20:41.692Z,20.30
2019-04-05T13:23:11.101Z,20.20
2019-04-05T13:25:41.137Z,20.40
2019-04-05T13:28:13.539Z,20.10
2019-04-05T13:30:42.205Z,20.30
2019-04-05T13:33:13.362Z,20.40
2019-04-05T13:35:45.113Z,20.50
2019-04-05T13:38:22.184Z,20.70
2019-04-05T13:40:51.544Z,20.60
2019-04-05T13:43:20.848Z,20.60
2019-04-05T13:45:50.171Z,20.40
2019-04-05T13:48:19.512Z,20.60
2019-04-05T13:50:48.811Z,20.30
2019-04-05T13:53:18.254Z,20.10
2019-04-05T13:55:47.668Z,20.10
2019-04-05T13:58:16.987Z,20.20
2019-04-05T14:00:48.862Z,20.10
2019-04-05T14:03:18.614Z,20.20
2019-04-05T14:05:50.062Z,19.90
2019-04-05T14:08:20.819Z,19.80
2019-04-05T14:10:50.184Z,19.60
2019-04-05T14:13:19.684Z,19.90
2019-04-05T14:15:49.351Z,20.10
2019-04-05T14:18:20.747Z,20.10
2019-04-05T14:20:50.701Z,20.10
2019-04-05T14:23:23.272Z,20.20
2019-04-05T14:25:51.038Z,20.30
2019-04-05T14:28:20.395Z,20.50
2019-04-05T14:30:49.858Z,20.50
2019-04-05T14:33:19.535Z,20.30
2019-04-05T14:35:49.043Z,20.30
2019-04-05T14:38:18.431Z,20.30
2019-04-05T14:40:48.124Z,20.40
2019-04-05T14:43:17.520Z,20.20
2019-04-05T14:45:50.080Z,20.20
2019-04-05T14:48:19.259Z,20.10
2019-04-05T14:50:48.654Z,19.90
2019-04-05T14:53:18.116Z,19.90
2019-04-05T14:55:47.663Z,19.70
2019-04-05T14:58:19.230Z,19.70
2019-04-05T15:00:48.622Z,19.50
2019-04-05T15:03:18.165Z,19.60
2019-04-05T15:05:48.284Z,19.60
2019-04-05T15:08:20.460Z,19.40
2019-04-05T15:10:51.391Z,19.30
2019-04-05T15:13:22.018Z,19.10
2019-04-05T15:15:51.627Z,19.10
2019-04-05T15:18:24.080Z,18.90
2019-04-05T15:20:52.816Z,18.90
2019-04-05T15:23:22.395Z,18.90
2019-04-05T15:25:52.742Z,18.80
2019-04-05T15:28:24.559Z,18.70
2019-04-05T15:30:56.767Z,18.60
2019-04-05T15:33:27.754Z,18.60
2019-04-05T15:36:00.212Z,18.40
2019-04-05T15:38:31.743Z,18.30
2019-04-05T15:41:01.444Z,18.20
2019-04-05T15:43:32.240Z,18.10
2019-04-05T15:46:01.903Z,18.10
2019-04-05T15:48:33.033Z,18.10
2019-04-05T15:51:02.627Z,18.00
2019-04-05T15:53:32.627Z,17.90
2019-04-05T15:56:04.268Z,18.00
2019-04-05T15:58:34.581Z,17.80
2019-04-05T16:01:05.725Z,17.80
2019-04-05T16:03:36.966Z,17.60
2019-04-05T16:06:06.217Z,17.60
2019-04-05T16:08:35.585Z,17.60
2019-04-05T16:11:05.161Z,17.50
2019-04-05T16:13:34.654Z,17.40
2019-04-05T16:16:04.405Z,17.40
2019-04-05T16:18:33.675Z,17.30
2019-04-05T16:21:03.837Z,17.40
2019-04-05T16:23:33.564Z,17.40
2019-04-05T16:26:03.062Z,17.30
2019-04-05T16:28:32.616Z,17.30
2019-04-05T16:31:02.347Z,17.20
2019-04-05T16:33:31.771Z,17.20
2019-04-05T16:36:03.733Z,17.10
2019-04-05T16:38:33.165Z,17.10
2019-04-05T16:41:04.544Z,17.10
2019-04-05T16:43:33.788Z,17.10
2019-04-05T16:46:03.567Z,17.00
2019-04-05T16:48:32.867Z,17.00
2019-04-05T16:51:02.267Z,16.90
2019-04-05T16:53:31.722Z,16.80
2019-04-05T16:56:01.059Z,16.80
2019-04-05T16:58:30.416Z,16.70
2019-04-05T17:00:59.776Z,16.60
2019-04-05T17:03:29.119Z,16.50
2019-04-05T17:05:58.710Z,16.40
2019-04-05T17:08:28.043Z,16.30
2019-04-05T17:10:57.507Z,16.20
2019-04-05T17:13:26.762Z,16.10
2019-04-05T17:15:55.986Z,16.10
2019-04-05T17:18:25.159Z,16.00
2019-04-05T17:20:54.585Z,15.90
2019-04-05T17:23:23.707Z,15.90
2019-04-05T17:25:53.019Z,15.80
2019-04-05T17:28:22.599Z,15.70
2019-04-05T17:30:52.039Z,15.60
2019-04-05T17:33:21.308Z,15.60
2019-04-05T17:35:50.535Z,15.60
2019-04-05T17:38:19.759Z,15.50
2019-04-05T17:40:49.015Z,15.50
2019-04-05T17:43:18.279Z,15.40
2019-04-05T17:45:47.548Z,15.40
2019-04-05T17:48:16.773Z,15.40
2019-04-05T17:50:47.197Z,15.40
2019-04-05T17:53:16.583Z,15.40
2019-04-05T17:55:46.092Z,15.30
2019-04-05T17:58:16.599Z,15.30
2019-04-05T18:00:45.774Z,15.20
2019-04-05T18:03:16.014Z,15.30
2019-04-05T18:05:45.523Z,15.20
2019-04-05T18:08:14.775Z,15.10
2019-04-05T18:10:44.050Z,15.00
2019-04-05T18:13:14.417Z,15.00
2019-04-05T18:15:52.449Z,15.00
2019-04-05T18:18:14.813Z,14.90
2019-04-05T18:20:44.162Z,14.90
2019-04-05T18:23:24.961Z,14.90
2019-04-05T18:25:47.880Z,14.80
2019-04-05T18:28:17.196Z,14.80
2019-04-05T18:30:46.754Z,14.70
2019-04-05T18:33:16.088Z,14.70
2019-04-05T18:35:45.364Z,14.70
2019-04-05T18:38:14.741Z,14.60
2019-04-05T18:40:44.414Z,14.60
2019-04-05T18:43:13.966Z,14.50
2019-04-05T18:45:43.678Z,14.50
2019-04-05T18:48:13.352Z,14.50
2019-04-05T18:50:43.010Z,14.50
2019-04-05T18:53:13.092Z,14.40
2019-04-05T18:55:42.597Z,14.40
2019-04-05T18:58:12.920Z,14.30
2019-04-05T19:00:42.668Z,14.30
2019-04-05T19:03:12.452Z,14.30
2019-04-05T19:05:42.084Z,14.20
2019-04-05T19:08:11.769Z,14.20
2019-04-05T19:10:41.447Z,14.10
2019-04-05T19:13:11.810Z,14.00
2019-04-05T19:15:41.679Z,13.90
2019-04-05T19:18:11.740Z,13.90
2019-04-05T19:20:44.586Z,13.80
2019-04-05T19:23:14.956Z,13.70
2019-04-05T19:25:52.244Z,13.70
2019-04-05T19:28:26.558Z,13.60
2019-04-05T19:50:19.531Z,13.20
2019-04-05T19:52:54.996Z,13.20
2019-04-05T19:55:28.769Z,13.20
2019-04-05T19:58:03.096Z,13.10
2019-04-05T20:00:38.106Z,13.10
2019-04-05T20:03:14.311Z,13.00
2019-04-05T20:05:45.202Z,12.90
2019-04-05T20:08:17.447Z,12.90
2019-04-05T20:10:49.167Z,12.80
2019-04-05T20:13:22.255Z,12.70
2019-04-05T20:15:55.677Z,12.60
2019-04-05T20:18:35.495Z,12.60
2019-04-05T20:21:12.775Z,12.50
2019-04-05T20:23:47.842Z,12.40
2019-04-05T20:26:20.115Z,12.30
2019-04-05T20:28:52.445Z,12.20
2019-04-05T20:31:47.325Z,12.20
2019-04-05T20:34:20.580Z,12.20
2019-04-05T20:37:25.362Z,12.20
2019-04-05T20:39:49.532Z,12.00
2019-04-05T20:42:26.845Z,12.00
2019-04-05T20:45:06.995Z,11.90
2019-04-05T20:47:43.783Z,11.80
2019-04-05T20:50:17.321Z,11.70
2019-04-05T20:52:47.657Z,11.60
2019-04-05T20:55:28.378Z,11.50
2019-04-05T21:04:09.628Z,11.40
2019-04-05T21:06:41.007Z,11.30
2019-04-05T21:09:27.363Z,11.30
2019-04-05T21:12:09.511Z,11.30
2019-04-05T21:14:45.040Z,11.30
2019-04-05T21:17:27.447Z,11.30
2019-04-05T21:24:18.604Z,11.20
2019-04-05T21:26:49.394Z,11.20
2019-04-05T21:29:24.132Z,11.10
2019-04-05T21:31:58.053Z,11.10
2019-04-05T21:34:28.934Z,11.10
2019-04-05T21:37:10.058Z,11.00
2019-04-05T21:39:40.651Z,11.00
2019-04-05T21:42:12.172Z,10.90
2019-04-05T21:44:57.839Z,10.90
2019-04-05T21:47:33.372Z,10.80
2019-04-05T21:50:06.194Z,10.70
2019-04-05T21:52:41.406Z,10.60
2019-04-05T21:55:14.148Z,10.60
2019-04-05T21:57:54.838Z,10.50
2019-04-05T22:00:55.139Z,10.50
2019-04-05T22:03:51.080Z,10.40
2019-04-05T22:06:23.171Z,10.30
2019-04-05T22:09:16.369Z,10.30
2019-04-05T22:11:55.051Z,10.20
2019-04-05T22:24:58.802Z,10.20
2019-04-05T22:28:12.459Z,10.20
2019-04-05T22:47:29.418Z,10.10
2019-04-05T22:57:29.148Z,10.10
2019-04-05T22:59:58.630Z,10.10
2019-04-05T23:06:35.417Z,10.10
2019-04-05T23:12:35.865Z,10.00
2019-04-05T23:15:33.642Z,10.00
2019-04-05T23:18:45.112Z,9.90
2019-04-05T23:21:25.614Z,9.90
2019-04-05T23:24:35.081Z,9.90
2019-04-05T23:27:18.258Z,9.90
2019-04-05T23:30:01.976Z,9.80
2019-04-05T23:32:32.918Z,9.80
2019-04-05T23:38:33.674Z,9.80
2019-04-05T23:41:14.044Z,9.70
2019-04-05T23:43:50.088Z,9.60
2019-04-05T23:47:06.225Z,9.60
2019-04-05T23:49:35.967Z,9.60
2019-04-05T23:56:09.941Z,9.60
